Lebanon, MO

11:45 AM CDT on August 04, 2015 (GMT -0500)
S. Newport, Conway | | Change Station
CLOSE
Current Station
Personal Weather Station
Location: Conway, MO
Elevation: 1394 ft
Nearby Weather Stations

Elev 1394 ft 37.50 °N, 92.83 °W | Updated 51 seconds ago

Clear
Clear
90.0 °F
Feels Like 95 °F
N
1.6
Wind Variable Wind from North
Gusts 5.4 mph

Today
High -- | Low -- °F
--% Chance of Precip.
Yesterday
High -- | Low -- °F
Precip. -- in
6:16 AM 8:16 PM
Waning Gibbous, 76% visible
Pressure 29.98 in
Visibility 9.0 miles
Clouds Clear
Heat Index 95 °F
Dew Point 70 °F
Humidity 51%
Rainfall 0.00 in
Snow Depth Not available.
UV 8 out of 12
Pollen 6.50 out of 12
Air Quality Not available.
Flu Activity Not available.
METAR KTBN 041558Z AUTO VRB04KT 9SM CLR 30/21 A3001 RMK AO2 SLP152 T02970210

More Conditions Fewer Conditions

Pressure 29.98 in
Visibility 9.0 miles
Clouds Clear
Heat Index 95 °F
Dew Point 70 °F
Humidity 51%
Rainfall 0.00 in
Snow Depth Not available.
UV 8 out of 12
Pollen 6.50 out of 12
Air Quality Not available.
Flu Activity Not available.
METAR KTBN 041558Z AUTO VRB04KT 9SM CLR 30/21 A3001 RMK AO2 SLP152 T02970210

More Conditions Fewer Conditions

10-Day Weather Forecast

×

Almanac

Astronomy

Aug. 04, 2015 Rise Set
Actual Time
Civil Twilight
Nautical Twilight
Astronomical Twilight
Moon
Length of Visible Light
Length of Day
Tomorrow will be .
, % of the Moon is Illuminated

Today's Extremes

State Highs State Lows

Community

WunderPhotos

Upload Photos

1,843,920 photos uploaded!

WunderBlogs® & News

Nearby

Air Quality

  Air Quality AQ Index Pollutant
Not available.

Snow Depth

Station Depth Elevation

Earthquake Activity

City Distance Mag. Time & Date
Minimum magnitude displayed is 2.5.

Coastal Water Temperatures

Place Temperature

Stations

Nearby Weather Stations

Station Location Temp. Windchill Dew Point Humidity Wind Precip. Elev Updated Type